Kezdőlap
METAR-TAF:

METAR-TAF

Repülőterek :

Araxos, Görögország

földrajzi szélesség: 38-09N, földrajzi hosszúság: 021-25E, magasság: 11 m

Jelenlegi meteorológiai megfigyelések

A jelentés 39 perccel ezelõtt készült, 12:20 UTC
Nyugati szél 5 kt
Hőmérséklet 14°C
Páratartalom 51%
Légköri nyomás 1013 hPa
Látótávolság 10 km, vagy több
Kevés felhő 4000 lábon

METAR: LGRX 021220Z 27005KT 9999 FEW040 14/04 Q1013

Idő: 15:59 (12:59 UTC)

Előrejelzés

A jelentés 1 órával és 59 perccel ezelõtt készült, 11:00 UTC
Az előrejelzés 02-én 12 óra UTC és 02-én 21 óra UTC között érvényes
Északnyugati szél 15 kt
Látótávolság 10 km, vagy több
Szórványos felhőzet 2500 lábon
02-én 19 óra UTC és 02-én 21 óra UTC között fokozatosan kialakuló
Kelet-északkeleti szél 10 kt
Szórványos felhőzet 2500 lábon
Szakadozott felhőzet 8000 lábon

TAF: LGRX 021100Z 0212/0221 32015KT 9999 SCT025 BECMG 0219/0221 06010KT SCT025 BKN080

Meteorológiai megfigyelések és előrejelzések több, mint 4000 repülőtéren (METAR és TAF jelentéseket).

A térképen piros és sárga pontok jelzik az elérhető meteorológiai állomásokat.

Mozgassa az egeret a pont fölött, hogy megjelenjen az állomás neve.

Azután kattintson az időjárási megfigyelések és előrejelzések megtekintéséhez.

A térkép megváltoztatása: kattintson a fekete keresztel jelölt zöld gombra ráközelítéshez, a vonallal jelölt zöld gombra távolításhoz, vagy a zöld nyilakra a szomszédos térképek eléréséhez.


METAR-TAF: